sensor_id;sensor_type;location;lat;lon;timestamp;temperature;humidity
65573;SHT30;52214;50.940;13.996;2022-08-05T04:14:51;19.62;72.00
65573;SHT30;52214;50.940;13.996;2022-08-05T04:17:17;19.63;72.72
65573;SHT30;52214;50.940;13.996;2022-08-05T04:19:44;19.61;72.65
65573;SHT30;52214;50.940;13.996;2022-08-05T04:22:11;19.67;72.32
65573;SHT30;52214;50.940;13.996;2022-08-05T04:24:42;19.65;72.98
65573;SHT30;52214;50.940;13.996;2022-08-05T04:27:07;19.69;72.81
65573;SHT30;52214;50.940;13.996;2022-08-05T04:29:33;19.66;72.53
65573;SHT30;52214;50.940;13.996;2022-08-05T04:31:59;19.67;72.81
65573;SHT30;52214;50.940;13.996;2022-08-05T04:34:25;19.84;71.47
65573;SHT30;52214;50.940;13.996;2022-08-05T04:36:50;19.91;71.80
65573;SHT30;52214;50.940;13.996;2022-08-05T04:39:17;19.94;72.51
65573;SHT30;52214;50.940;13.996;2022-08-05T04:41:43;19.96;72.66
65573;SHT30;52214;50.940;13.996;2022-08-05T04:44:08;20.04;72.60
65573;SHT30;52214;50.940;13.996;2022-08-05T04:46:33;19.98;72.22
65573;SHT30;52214;50.940;13.996;2022-08-05T04:48:59;20.03;73.05
65573;SHT30;52214;50.940;13.996;2022-08-05T04:51:24;20.07;72.42
65573;SHT30;52214;50.940;13.996;2022-08-05T04:53:50;20.13;72.18
65573;SHT30;52214;50.940;13.996;2022-08-05T04:56:15;20.20;72.16
65573;SHT30;52214;50.940;13.996;2022-08-05T04:58:41;20.21;72.09
65573;SHT30;52214;50.940;13.996;2022-08-05T05:01:07;20.27;71.29
65573;SHT30;52214;50.940;13.996;2022-08-05T05:03:32;20.32;71.74
65573;SHT30;52214;50.940;13.996;2022-08-05T05:05:58;20.29;71.62
65573;SHT30;52214;50.940;13.996;2022-08-05T05:08:23;20.38;71.36
65573;SHT30;52214;50.940;13.996;2022-08-05T05:10:49;20.48;71.06
65573;SHT30;52214;50.940;13.996;2022-08-05T05:13:16;20.55;70.21
65573;SHT30;52214;50.940;13.996;2022-08-05T05:15:44;20.62;69.93
65573;SHT30;52214;50.940;13.996;2022-08-05T05:18:14;20.77;69.75
65573;SHT30;52214;50.940;13.996;2022-08-05T05:20:42;20.83;69.22
65573;SHT30;52214;50.940;13.996;2022-08-05T05:23:08;21.00;69.79
65573;SHT30;52214;50.940;13.996;2022-08-05T05:25:33;21.15;68.56
65573;SHT30;52214;50.940;13.996;2022-08-05T05:27:59;21.23;68.72
65573;SHT30;52214;50.940;13.996;2022-08-05T05:30:24;21.34;68.13
65573;SHT30;52214;50.940;13.996;2022-08-05T05:32:50;21.35;68.12
65573;SHT30;52214;50.940;13.996;2022-08-05T05:35:16;21.44;67.74
65573;SHT30;52214;50.940;13.996;2022-08-05T05:37:52;21.51;67.65
65573;SHT30;52214;50.940;13.996;2022-08-05T05:40:21;21.61;67.47
65573;SHT30;52214;50.940;13.996;2022-08-05T05:42:47;21.67;67.93
65573;SHT30;52214;50.940;13.996;2022-08-05T05:45:14;21.76;66.32
65573;SHT30;52214;50.940;13.996;2022-08-05T05:47:40;21.88;65.55
65573;SHT30;52214;50.940;13.996;2022-08-05T05:50:10;21.99;65.45
65573;SHT30;52214;50.940;13.996;2022-08-05T05:52:36;22.11;65.31
65573;SHT30;52214;50.940;13.996;2022-08-05T05:55:04;22.25;65.36
65573;SHT30;52214;50.940;13.996;2022-08-05T05:57:30;22.38;63.98
65573;SHT30;52214;50.940;13.996;2022-08-05T05:59:56;22.59;63.72
65573;SHT30;52214;50.940;13.996;2022-08-05T06:02:21;22.71;63.21
65573;SHT30;52214;50.940;13.996;2022-08-05T06:04:47;22.79;62.46
65573;SHT30;52214;50.940;13.996;2022-08-05T06:07:12;23.00;61.91
65573;SHT30;52214;50.940;13.996;2022-08-05T06:09:38;23.09;61.56
65573;SHT30;52214;50.940;13.996;2022-08-05T06:12:03;23.23;61.21
65573;SHT30;52214;50.940;13.996;2022-08-05T06:14:30;23.21;60.99
65573;SHT30;52214;50.940;13.996;2022-08-05T06:16:55;23.34;60.64
65573;SHT30;52214;50.940;13.996;2022-08-05T06:19:21;23.52;60.44
65573;SHT30;52214;50.940;13.996;2022-08-05T06:21:46;23.58;59.71
65573;SHT30;52214;50.940;13.996;2022-08-05T06:24:12;23.68;59.73
65573;SHT30;52214;50.940;13.996;2022-08-05T06:26:38;23.75;59.64
65573;SHT30;52214;50.940;13.996;2022-08-05T06:29:04;23.90;59.21
65573;SHT30;52214;50.940;13.996;2022-08-05T06:31:30;23.90;59.03
65573;SHT30;52214;50.940;13.996;2022-08-05T06:33:55;24.05;59.15
65573;SHT30;52214;50.940;13.996;2022-08-05T06:38:48;24.28;58.39
65573;SHT30;52214;50.940;13.996;2022-08-05T06:41:18;24.47;58.33
65573;SHT30;52214;50.940;13.996;2022-08-05T06:43:43;24.52;57.58
65573;SHT30;52214;50.940;13.996;2022-08-05T06:46:09;24.61;57.88
65573;SHT30;52214;50.940;13.996;2022-08-05T06:48:34;24.68;58.36
65573;SHT30;52214;50.940;13.996;2022-08-05T06:51:00;24.92;56.90
65573;SHT30;52214;50.940;13.996;2022-08-05T06:53:26;25.24;56.74
65573;SHT30;52214;50.940;13.996;2022-08-05T06:55:51;25.71;54.37
65573;SHT30;52214;50.940;13.996;2022-08-05T06:58:16;25.92;53.79
65573;SHT30;52214;50.940;13.996;2022-08-05T07:00:42;25.84;54.04
65573;SHT30;52214;50.940;13.996;2022-08-05T07:03:07;25.74;52.99
65573;SHT30;52214;50.940;13.996;2022-08-05T07:05:33;25.77;53.40
65573;SHT30;52214;50.940;13.996;2022-08-05T07:07:58;25.67;53.74
65573;SHT30;52214;50.940;13.996;2022-08-05T07:10:24;25.55;53.29
65573;SHT30;52214;50.940;13.996;2022-08-05T07:12:50;25.68;53.55
65573;SHT30;52214;50.940;13.996;2022-08-05T07:15:33;26.07;53.34
65573;SHT30;52214;50.940;13.996;2022-08-05T07:18:17;26.12;52.26
65573;SHT30;52214;50.940;13.996;2022-08-05T07:20:43;26.27;52.18
65573;SHT30;52214;50.940;13.996;2022-08-05T07:23:08;26.55;51.75
65573;SHT30;52214;50.940;13.996;2022-08-05T07:25:34;26.75;52.40
65573;SHT30;52214;50.940;13.996;2022-08-05T07:27:59;26.88;50.88
65573;SHT30;52214;50.940;13.996;2022-08-05T07:30:25;26.95;50.51
65573;SHT30;52214;50.940;13.996;2022-08-05T07:32:50;27.17;50.09
65573;SHT30;52214;50.940;13.996;2022-08-05T07:35:16;27.50;49.09
65573;SHT30;52214;50.940;13.996;2022-08-05T07:37:41;27.89;47.77
65573;SHT30;52214;50.940;13.996;2022-08-05T07:40:07;27.95;48.30
65573;SHT30;52214;50.940;13.996;2022-08-05T07:42:33;27.77;46.83
65573;SHT30;52214;50.940;13.996;2022-08-05T07:44:59;28.12;47.01
65573;SHT30;52214;50.940;13.996;2022-08-05T07:47:24;28.26;46.08
65573;SHT30;52214;50.940;13.996;2022-08-05T07:49:50;28.77;43.83
65573;SHT30;52214;50.940;13.996;2022-08-05T07:52:20;28.64;44.38
65573;SHT30;52214;50.940;13.996;2022-08-05T07:54:46;28.85;44.61
65573;SHT30;52214;50.940;13.996;2022-08-05T07:57:11;29.05;43.64
65573;SHT30;52214;50.940;13.996;2022-08-05T07:59:37;29.32;43.72
65573;SHT30;52214;50.940;13.996;2022-08-05T08:02:03;29.66;42.71
65573;SHT30;52214;50.940;13.996;2022-08-05T08:04:28;29.92;41.91
65573;SHT30;52214;50.940;13.996;2022-08-05T08:06:54;29.82;41.76
65573;SHT30;52214;50.940;13.996;2022-08-05T08:09:20;29.76;43.03
65573;SHT30;52214;50.940;13.996;2022-08-05T08:11:46;29.76;43.03
65573;SHT30;52214;50.940;13.996;2022-08-05T08:14:11;29.57;43.53
65573;SHT30;52214;50.940;13.996;2022-08-05T08:16:37;29.88;43.25
65573;SHT30;52214;50.940;13.996;2022-08-05T08:19:02;30.02;45.70
65573;SHT30;52214;50.940;13.996;2022-08-05T08:21:28;29.87;48.75
65573;SHT30;52214;50.940;13.996;2022-08-05T08:23:53;29.53;51.26
65573;SHT30;52214;50.940;13.996;2022-08-05T08:26:20;29.73;51.74
65573;SHT30;52214;50.940;13.996;2022-08-05T08:28:45;29.22;52.35
65573;SHT30;52214;50.940;13.996;2022-08-05T08:31:11;29.11;53.52
65573;SHT30;52214;50.940;13.996;2022-08-05T08:33:36;28.75;54.09
65573;SHT30;52214;50.940;13.996;2022-08-05T08:36:02;28.56;53.53
65573;SHT30;52214;50.940;13.996;2022-08-05T08:38:29;28.59;53.90
65573;SHT30;52214;50.940;13.996;2022-08-05T08:40:55;28.60;53.06
65573;SHT30;52214;50.940;13.996;2022-08-05T08:43:22;29.19;51.43
65573;SHT30;52214;50.940;13.996;2022-08-05T08:45:49;29.34;50.67
65573;SHT30;52214;50.940;13.996;2022-08-05T08:48:18;29.40;50.92
65573;SHT30;52214;50.940;13.996;2022-08-05T08:50:46;29.54;50.91
65573;SHT30;52214;50.940;13.996;2022-08-05T08:53:14;30.60;49.63
65573;SHT30;52214;50.940;13.996;2022-08-05T08:55:40;30.53;48.39
65573;SHT30;52214;50.940;13.996;2022-08-05T08:58:06;30.56;49.30
65573;SHT30;52214;50.940;13.996;2022-08-05T09:00:32;30.90;48.83
65573;SHT30;52214;50.940;13.996;2022-08-05T09:02:58;30.85;49.74
65573;SHT30;52214;50.940;13.996;2022-08-05T09:05:24;30.43;49.67
65573;SHT30;52214;50.940;13.996;2022-08-05T09:07:50;31.04;48.93
65573;SHT30;52214;50.940;13.996;2022-08-05T09:10:17;31.15;49.10
65573;SHT30;52214;50.940;13.996;2022-08-05T09:12:43;31.28;49.01
65573;SHT30;52214;50.940;13.996;2022-08-05T09:15:09;31.67;48.19
65573;SHT30;52214;50.940;13.996;2022-08-05T09:17:34;31.36;48.08
65573;SHT30;52214;50.940;13.996;2022-08-05T09:20:01;31.69;47.99
65573;SHT30;52214;50.940;13.996;2022-08-05T09:22:26;31.59;48.25
65573;SHT30;52214;50.940;13.996;2022-08-05T09:25:03;31.59;48.18
65573;SHT30;52214;50.940;13.996;2022-08-05T09:27:36;30.33;49.66
65573;SHT30;52214;50.940;13.996;2022-08-05T09:30:08;30.29;50.33
65573;SHT30;52214;50.940;13.996;2022-08-05T09:32:36;30.90;49.37
65573;SHT30;52214;50.940;13.996;2022-08-05T09:35:14;31.40;48.62
65573;SHT30;52214;50.940;13.996;2022-08-05T09:37:51;31.83;47.39
65573;SHT30;52214;50.940;13.996;2022-08-05T09:40:36;31.84;47.28
65573;SHT30;52214;50.940;13.996;2022-08-05T09:43:06;32.29;47.09
65573;SHT30;52214;50.940;13.996;2022-08-05T09:45:41;32.49;46.58
65573;SHT30;52214;50.940;13.996;2022-08-05T09:48:27;32.59;45.73
65573;SHT30;52214;50.940;13.996;2022-08-05T09:50:56;32.77;45.49
65573;SHT30;52214;50.940;13.996;2022-08-05T09:53:23;32.55;46.16
65573;SHT30;52214;50.940;13.996;2022-08-05T09:55:54;32.88;45.64
65573;SHT30;52214;50.940;13.996;2022-08-05T09:58:19;33.34;44.53
65573;SHT30;52214;50.940;13.996;2022-08-05T10:03:18;32.90;44.71
65573;SHT30;52214;50.940;13.996;2022-08-05T10:05:43;32.99;45.71
65573;SHT30;52214;50.940;13.996;2022-08-05T10:08:09;33.62;44.68
65573;SHT30;52214;50.940;13.996;2022-08-05T10:10:37;33.28;44.75
65573;SHT30;52214;50.940;13.996;2022-08-05T10:13:04;33.69;44.28
65573;SHT30;52214;50.940;13.996;2022-08-05T10:15:32;33.82;43.99
65573;SHT30;52214;50.940;13.996;2022-08-05T10:20:30;33.48;44.37
65573;SHT30;52214;50.940;13.996;2022-08-05T10:22:56;34.29;43.53
65573;SHT30;52214;50.940;13.996;2022-08-05T10:25:22;34.63;42.50
65573;SHT30;52214;50.940;13.996;2022-08-05T10:27:48;34.27;42.99
65573;SHT30;52214;50.940;13.996;2022-08-05T10:30:14;34.31;41.61
65573;SHT30;52214;50.940;13.996;2022-08-05T10:32:39;34.03;42.96
65573;SHT30;52214;50.940;13.996;2022-08-05T10:35:06;34.48;42.41
65573;SHT30;52214;50.940;13.996;2022-08-05T10:37:32;34.48;42.30
65573;SHT30;52214;50.940;13.996;2022-08-05T10:40:00;35.02;41.71
65573;SHT30;52214;50.940;13.996;2022-08-05T10:42:31;34.78;41.27
65573;SHT30;52214;50.940;13.996;2022-08-05T10:45:05;35.84;40.27
65573;SHT30;52214;50.940;13.996;2022-08-05T10:47:32;35.06;41.00
65573;SHT30;52214;50.940;13.996;2022-08-05T10:50:01;35.71;40.20
65573;SHT30;52214;50.940;13.996;2022-08-05T10:52:42;36.26;39.04
65573;SHT30;52214;50.940;13.996;2022-08-05T10:55:10;36.52;39.53
65573;SHT30;52214;50.940;13.996;2022-08-05T10:57:36;36.33;39.19
65573;SHT30;52214;50.940;13.996;2022-08-05T11:02:34;37.37;37.74
65573;SHT30;52214;50.940;13.996;2022-08-05T11:05:03;36.96;37.95
65573;SHT30;52214;50.940;13.996;2022-08-05T11:07:29;37.05;37.91
65573;SHT30;52214;50.940;13.996;2022-08-05T11:09:55;36.22;38.47
65573;SHT30;52214;50.940;13.996;2022-08-05T11:15:09;36.82;37.85
65573;SHT30;52214;50.940;13.996;2022-08-05T11:17:41;36.96;36.74
65573;SHT30;52214;50.940;13.996;2022-08-05T11:20:31;37.13;37.59
65573;SHT30;52214;50.940;13.996;2022-08-05T11:22:58;37.39;37.67
65573;SHT30;52214;50.940;13.996;2022-08-05T11:36:05;37.71;36.18
65573;SHT30;52214;50.940;13.996;2022-08-05T11:48:57;39.45;33.37
65573;SHT30;52214;50.940;13.996;2022-08-05T11:51:24;38.66;34.23
65573;SHT30;52214;50.940;13.996;2022-08-05T11:53:52;37.73;35.73
65573;SHT30;52214;50.940;13.996;2022-08-05T11:56:18;36.95;36.95
65573;SHT30;52214;50.940;13.996;2022-08-05T11:58:45;37.76;35.64
65573;SHT30;52214;50.940;13.996;2022-08-05T12:01:13;38.33;34.30
65573;SHT30;52214;50.940;13.996;2022-08-05T12:03:53;38.88;34.24
65573;SHT30;52214;50.940;13.996;2022-08-05T12:06:22;39.33;33.82
65573;SHT30;52214;50.940;13.996;2022-08-05T12:08:52;39.59;32.69
65573;SHT30;52214;50.940;13.996;2022-08-05T12:11:20;40.19;30.44
65573;SHT30;52214;50.940;13.996;2022-08-05T12:14:06;40.45;31.35
65573;SHT30;52214;50.940;13.996;2022-08-05T12:16:34;41.28;30.74
65573;SHT30;52214;50.940;13.996;2022-08-05T12:19:01;40.79;30.32
65573;SHT30;52214;50.940;13.996;2022-08-05T12:21:31;41.92;29.31
65573;SHT30;52214;50.940;13.996;2022-08-05T12:23:58;42.06;29.71
65573;SHT30;52214;50.940;13.996;2022-08-05T12:26:29;43.30;28.39
65573;SHT30;52214;50.940;13.996;2022-08-05T12:28:55;39.83;31.23
65573;SHT30;52214;50.940;13.996;2022-08-05T12:31:21;39.67;31.63
65573;SHT30;52214;50.940;13.996;2022-08-05T12:33:47;39.32;31.60
65573;SHT30;52214;50.940;13.996;2022-08-05T12:36:13;40.60;30.70
65573;SHT30;52214;50.940;13.996;2022-08-05T12:38:39;41.34;29.96
65573;SHT30;52214;50.940;13.996;2022-08-05T12:41:11;40.39;30.30
65573;SHT30;52214;50.940;13.996;2022-08-05T12:43:53;41.03;29.95
65573;SHT30;52214;50.940;13.996;2022-08-05T12:46:24;41.14;29.88
65573;SHT30;52214;50.940;13.996;2022-08-05T12:49:05;41.51;28.99
65573;SHT30;52214;50.940;13.996;2022-08-05T12:51:30;41.45;28.68
65573;SHT30;52214;50.940;13.996;2022-08-05T12:53:58;41.21;29.31
65573;SHT30;52214;50.940;13.996;2022-08-05T12:56:24;41.13;29.20
65573;SHT30;52214;50.940;13.996;2022-08-05T12:59:13;40.65;30.07
65573;SHT30;52214;50.940;13.996;2022-08-05T13:01:41;38.98;31.35
65573;SHT30;52214;50.940;13.996;2022-08-05T13:04:07;38.80;32.71
65573;SHT30;52214;50.940;13.996;2022-08-05T13:06:40;37.54;33.70
65573;SHT30;52214;50.940;13.996;2022-08-05T13:09:12;38.04;32.91
65573;SHT30;52214;50.940;13.996;2022-08-05T13:11:40;41.20;29.01
65573;SHT30;52214;50.940;13.996;2022-08-05T13:14:16;42.55;26.73
65573;SHT30;52214;50.940;13.996;2022-08-05T13:16:56;43.06;26.99
65573;SHT30;52214;50.940;13.996;2022-08-05T13:19:24;42.78;27.81
65573;SHT30;52214;50.940;13.996;2022-08-05T13:21:51;41.82;28.54
65573;SHT30;52214;50.940;13.996;2022-08-05T13:24:18;40.41;29.40
65573;SHT30;52214;50.940;13.996;2022-08-05T13:26:45;41.59;28.69
65573;SHT30;52214;50.940;13.996;2022-08-05T13:29:11;42.71;27.24
65573;SHT30;52214;50.940;13.996;2022-08-05T13:31:37;43.24;25.35
65573;SHT30;52214;50.940;13.996;2022-08-05T13:34:02;43.25;24.95
65573;SHT30;52214;50.940;13.996;2022-08-05T13:36:28;41.89;27.49
65573;SHT30;52214;50.940;13.996;2022-08-05T13:38:53;39.11;30.69
65573;SHT30;52214;50.940;13.996;2022-08-05T13:41:19;41.25;28.34
65573;SHT30;52214;50.940;13.996;2022-08-05T13:43:44;39.82;30.18
65573;SHT30;52214;50.940;13.996;2022-08-05T13:46:10;38.68;31.07
65573;SHT30;52214;50.940;13.996;2022-08-05T13:48:37;37.06;33.70
65573;SHT30;52214;50.940;13.996;2022-08-05T13:51:11;38.93;31.81
65573;SHT30;52214;50.940;13.996;2022-08-05T13:53:37;41.44;28.69
65573;SHT30;52214;50.940;13.996;2022-08-05T13:56:03;41.80;27.74
65573;SHT30;52214;50.940;13.996;2022-08-05T13:58:29;42.63;27.09
65573;SHT30;52214;50.940;13.996;2022-08-05T14:00:55;42.30;27.40
65573;SHT30;52214;50.940;13.996;2022-08-05T14:03:21;43.47;26.99
65573;SHT30;52214;50.940;13.996;2022-08-05T14:05:46;43.82;26.65
65573;SHT30;52214;50.940;13.996;2022-08-05T14:08:12;44.48;25.57
65573;SHT30;52214;50.940;13.996;2022-08-05T14:10:38;42.90;26.71
65573;SHT30;52214;50.940;13.996;2022-08-05T14:13:07;44.00;25.42
65573;SHT30;52214;50.940;13.996;2022-08-05T14:15:33;44.64;25.75
65573;SHT30;52214;50.940;13.996;2022-08-05T14:17:59;44.90;24.96
65573;SHT30;52214;50.940;13.996;2022-08-05T14:20:24;45.72;24.84
65573;SHT30;52214;50.940;13.996;2022-08-05T14:22:50;43.93;25.55
65573;SHT30;52214;50.940;13.996;2022-08-05T14:25:19;43.74;25.95
65573;SHT30;52214;50.940;13.996;2022-08-05T14:27:47;45.92;24.28
65573;SHT30;52214;50.940;13.996;2022-08-05T14:30:14;43.95;25.18
65573;SHT30;52214;50.940;13.996;2022-08-05T14:32:40;43.17;26.04
65573;SHT30;52214;50.940;13.996;2022-08-05T14:35:06;43.38;26.52
65573;SHT30;52214;50.940;13.996;2022-08-05T14:37:32;43.93;25.95
65573;SHT30;52214;50.940;13.996;2022-08-05T14:39:58;43.60;26.35
65573;SHT30;52214;50.940;13.996;2022-08-05T14:42:23;43.77;25.82
65573;SHT30;52214;50.940;13.996;2022-08-05T14:44:49;42.19;27.14
65573;SHT30;52214;50.940;13.996;2022-08-05T14:47:14;41.31;28.00
65573;SHT30;52214;50.940;13.996;2022-08-05T14:49:40;42.93;26.77
65573;SHT30;52214;50.940;13.996;2022-08-05T14:52:05;42.97;26.89
65573;SHT30;52214;50.940;13.996;2022-08-05T14:54:31;42.43;27.17
65573;SHT30;52214;50.940;13.996;2022-08-05T14:56:57;42.86;26.58
65573;SHT30;52214;50.940;13.996;2022-08-05T14:59:24;43.11;25.95
65573;SHT30;52214;50.940;13.996;2022-08-05T15:01:49;42.54;26.58
65573;SHT30;52214;50.940;13.996;2022-08-05T15:04:18;43.88;25.99
65573;SHT30;52214;50.940;13.996;2022-08-05T15:06:44;44.60;24.78
65573;SHT30;52214;50.940;13.996;2022-08-05T15:09:09;43.93;25.04
65573;SHT30;52214;50.940;13.996;2022-08-05T15:11:35;42.55;26.72
65573;SHT30;52214;50.940;13.996;2022-08-05T15:14:01;44.15;24.77
65573;SHT30;52214;50.940;13.996;2022-08-05T15:16:27;44.32;24.95
65573;SHT30;52214;50.940;13.996;2022-08-05T15:18:52;43.16;25.72
65573;SHT30;52214;50.940;13.996;2022-08-05T15:21:18;43.30;25.69
65573;SHT30;52214;50.940;13.996;2022-08-05T15:23:43;44.00;25.35
65573;SHT30;52214;50.940;13.996;2022-08-05T15:26:09;43.96;25.46
65573;SHT30;52214;50.940;13.996;2022-08-05T15:28:34;43.34;25.67
65573;SHT30;52214;50.940;13.996;2022-08-05T15:31:00;43.75;25.34
65573;SHT30;52214;50.940;13.996;2022-08-05T15:33:26;43.44;26.35
65573;SHT30;52214;50.940;13.996;2022-08-05T15:35:51;42.37;26.64
65573;SHT30;52214;50.940;13.996;2022-08-05T15:38:17;42.99;26.12
65573;SHT30;52214;50.940;13.996;2022-08-05T15:40:43;41.83;26.72
65573;SHT30;52214;50.940;13.996;2022-08-05T15:43:09;39.78;28.85
65573;SHT30;52214;50.940;13.996;2022-08-05T15:45:34;38.66;30.53
65573;SHT30;52214;50.940;13.996;2022-08-05T15:48:01;38.06;31.31
65573;SHT30;52214;50.940;13.996;2022-08-05T15:50:28;40.05;28.96
65573;SHT30;52214;50.940;13.996;2022-08-05T15:52:53;40.79;28.79
65573;SHT30;52214;50.940;13.996;2022-08-05T15:55:19;41.73;28.12
65573;SHT30;52214;50.940;13.996;2022-08-05T15:57:44;42.13;26.72
65573;SHT30;52214;50.940;13.996;2022-08-05T16:00:10;41.31;27.88
65573;SHT30;52214;50.940;13.996;2022-08-05T16:02:36;40.00;28.87
65573;SHT30;52214;50.940;13.996;2022-08-05T16:05:03;38.67;30.64
65573;SHT30;52214;50.940;13.996;2022-08-05T16:07:28;37.47;33.23
65573;SHT30;52214;50.940;13.996;2022-08-05T16:09:54;37.08;32.73
65573;SHT30;52214;50.940;13.996;2022-08-05T16:12:19;37.98;32.10
65573;SHT30;52214;50.940;13.996;2022-08-05T16:14:45;38.18;31.45
65573;SHT30;52214;50.940;13.996;2022-08-05T16:17:11;37.70;32.27
65573;SHT30;52214;50.940;13.996;2022-08-05T16:19:37;37.43;33.14
65573;SHT30;52214;50.940;13.996;2022-08-05T16:22:03;38.01;32.74
65573;SHT30;52214;50.940;13.996;2022-08-05T16:24:30;38.70;31.58
65573;SHT30;52214;50.940;13.996;2022-08-05T16:26:58;39.12;30.98
65573;SHT30;52214;50.940;13.996;2022-08-05T16:29:25;38.11;32.30
65573;SHT30;52214;50.940;13.996;2022-08-05T16:31:52;37.57;32.08
65573;SHT30;52214;50.940;13.996;2022-08-05T16:34:19;36.58;33.34
65573;SHT30;52214;50.940;13.996;2022-08-05T16:36:46;35.72;34.78
65573;SHT30;52214;50.940;13.996;2022-08-05T16:39:11;35.16;35.65
65573;SHT30;52214;50.940;13.996;2022-08-05T16:41:37;35.10;35.58
65573;SHT30;52214;50.940;13.996;2022-08-05T16:44:10;34.65;36.37
65573;SHT30;52214;50.940;13.996;2022-08-05T16:46:36;34.48;37.11
65573;SHT30;52214;50.940;13.996;2022-08-05T16:49:02;34.24;37.24
65573;SHT30;52214;50.940;13.996;2022-08-05T16:51:28;33.59;38.46
65573;SHT30;52214;50.940;13.996;2022-08-05T16:53:54;33.48;39.14
65573;SHT30;52214;50.940;13.996;2022-08-05T16:56:20;33.70;38.46
65573;SHT30;52214;50.940;13.996;2022-08-05T16:58:46;33.37;39.38
65573;SHT30;52214;50.940;13.996;2022-08-05T17:01:11;33.52;39.37
65573;SHT30;52214;50.940;13.996;2022-08-05T17:03:37;33.72;38.52
65573;SHT30;52214;50.940;13.996;2022-08-05T17:06:03;33.62;38.72
65573;SHT30;52214;50.940;13.996;2022-08-05T17:08:28;33.18;40.18
65573;SHT30;52214;50.940;13.996;2022-08-05T17:10:54;33.08;39.88
65573;SHT30;52214;50.940;13.996;2022-08-05T17:13:20;32.96;40.60
65573;SHT30;52214;50.940;13.996;2022-08-05T17:15:46;32.80;40.67
65573;SHT30;52214;50.940;13.996;2022-08-05T17:18:12;32.83;40.51
65573;SHT30;52214;50.940;13.996;2022-08-05T17:20:38;32.84;40.49
65573;SHT30;52214;50.940;13.996;2022-08-05T17:23:03;32.53;41.36
65573;SHT30;52214;50.940;13.996;2022-08-05T17:25:29;32.35;41.53
65573;SHT30;52214;50.940;13.996;2022-08-05T17:27:54;32.31;41.55
65573;SHT30;52214;50.940;13.996;2022-08-05T17:30:20;31.97;42.40
65573;SHT30;52214;50.940;13.996;2022-08-05T17:32:46;31.84;42.53
65573;SHT30;52214;50.940;13.996;2022-08-05T17:35:11;31.67;43.40
65573;SHT30;52214;50.940;13.996;2022-08-05T17:37:37;31.49;43.66
65573;SHT30;52214;50.940;13.996;2022-08-05T17:40:09;31.40;44.17
65573;SHT30;52214;50.940;13.996;2022-08-05T17:42:35;31.21;44.67
65573;SHT30;52214;50.940;13.996;2022-08-05T17:45:01;31.02;44.72
65573;SHT30;52214;50.940;13.996;2022-08-05T17:47:27;31.10;45.22
65573;SHT30;52214;50.940;13.996;2022-08-05T17:49:53;30.91;45.69
65573;SHT30;52214;50.940;13.996;2022-08-05T17:52:18;30.76;45.96
65573;SHT30;52214;50.940;13.996;2022-08-05T17:54:44;30.64;46.26
65573;SHT30;52214;50.940;13.996;2022-08-05T17:57:09;30.60;46.56
65573;SHT30;52214;50.940;13.996;2022-08-05T17:59:35;30.52;46.65
65573;SHT30;52214;50.940;13.996;2022-08-05T18:02:01;30.42;47.16
65573;SHT30;52214;50.940;13.996;2022-08-05T18:04:27;30.22;47.45
65573;SHT30;52214;50.940;13.996;2022-08-05T18:06:53;30.02;47.39
65573;SHT30;52214;50.940;13.996;2022-08-05T18:09:19;29.88;46.69
65573;SHT30;52214;50.940;13.996;2022-08-05T18:11:44;29.73;45.80
65573;SHT30;52214;50.940;13.996;2022-08-05T18:14:10;29.73;45.51
65573;SHT30;52214;50.940;13.996;2022-08-05T18:16:35;29.45;46.32
65573;SHT30;52214;50.940;13.996;2022-08-05T18:19:02;29.20;47.76
65573;SHT30;52214;50.940;13.996;2022-08-05T18:21:28;28.84;49.56
65573;SHT30;52214;50.940;13.996;2022-08-05T18:23:54;28.63;51.08
65573;SHT30;52214;50.940;13.996;2022-08-05T18:26:23;28.32;52.66
65573;SHT30;52214;50.940;13.996;2022-08-05T18:28:48;28.05;53.48
65573;SHT30;52214;50.940;13.996;2022-08-05T18:31:17;27.76;54.31
65573;SHT30;52214;50.940;13.996;2022-08-05T18:33:43;27.36;55.44
65573;SHT30;52214;50.940;13.996;2022-08-05T18:36:09;27.32;55.57
65573;SHT30;52214;50.940;13.996;2022-08-05T18:38:35;27.09;56.06
65573;SHT30;52214;50.940;13.996;2022-08-05T18:41:01;26.87;56.76
65573;SHT30;52214;50.940;13.996;2022-08-05T18:43:26;26.54;57.57
65573;SHT30;52214;50.940;13.996;2022-08-05T18:45:52;26.41;58.26
65573;SHT30;52214;50.940;13.996;2022-08-05T18:48:17;26.10;59.05
65573;SHT30;52214;50.940;13.996;2022-08-05T18:50:43;26.07;59.19
65573;SHT30;52214;50.940;13.996;2022-08-05T18:53:27;25.86;60.31
65573;SHT30;52214;50.940;13.996;2022-08-05T18:55:53;25.58;61.70
65573;SHT30;52214;50.940;13.996;2022-08-05T18:58:19;25.50;62.24
65573;SHT30;52214;50.940;13.996;2022-08-05T19:00:45;25.51;62.58
65573;SHT30;52214;50.940;13.996;2022-08-05T19:03:10;25.27;63.74
65573;SHT30;52214;50.940;13.996;2022-08-05T19:05:36;25.23;64.57
65573;SHT30;52214;50.940;13.996;2022-08-05T19:08:06;24.85;66.75
65573;SHT30;52214;50.940;13.996;2022-08-05T19:10:31;24.96;66.58
65573;SHT30;52214;50.940;13.996;2022-08-05T19:12:58;24.82;67.25
65573;SHT30;52214;50.940;13.996;2022-08-05T19:15:24;24.78;67.85
65573;SHT30;52214;50.940;13.996;2022-08-05T19:17:50;24.31;70.56
65573;SHT30;52214;50.940;13.996;2022-08-05T19:20:15;24.43;70.26
65573;SHT30;52214;50.940;13.996;2022-08-05T19:22:42;24.23;71.55
65573;SHT30;52214;50.940;13.996;2022-08-05T19:25:08;24.12;72.43
65573;SHT30;52214;50.940;13.996;2022-08-05T19:27:33;23.90;73.45
65573;SHT30;52214;50.940;13.996;2022-08-05T19:29:59;23.73;74.22
65573;SHT30;52214;50.940;13.996;2022-08-05T19:32:28;23.54;75.29
65573;SHT30;52214;50.940;13.996;2022-08-05T19:34:55;23.61;75.00
65573;SHT30;52214;50.940;13.996;2022-08-05T19:37:21;23.69;75.12
65573;SHT30;52214;50.940;13.996;2022-08-05T19:39:47;23.66;75.00
65573;SHT30;52214;50.940;13.996;2022-08-05T19:42:12;23.69;75.19
65573;SHT30;52214;50.940;13.996;2022-08-05T19:44:38;23.83;74.54
65573;SHT30;52214;50.940;13.996;2022-08-05T19:47:03;23.83;74.89
65573;SHT30;52214;50.940;13.996;2022-08-05T19:49:29;23.90;74.69
65573;SHT30;52214;50.940;13.996;2022-08-05T19:51:54;23.75;75.15
65573;SHT30;52214;50.940;13.996;2022-08-05T19:54:21;23.72;75.36
65573;SHT30;52214;50.940;13.996;2022-08-05T19:56:48;23.82;75.09
65573;SHT30;52214;50.940;13.996;2022-08-05T19:59:14;23.63;75.76
65573;SHT30;52214;50.940;13.996;2022-08-05T20:01:39;23.58;75.61